sensor_id;sensor_type;location;lat;lon;timestamp;pressure;altitude;pressure_sealevel;temperature;humidity
53270;BME280;39159;45.634;9.420;2023-03-20T00:01:51;99150.84;;;7.92;100.00
53270;BME280;39159;45.634;9.420;2023-03-20T00:04:16;99146.88;;;7.79;100.00
53270;BME280;39159;45.634;9.420;2023-03-20T00:06:42;99158.59;;;7.69;100.00
53270;BME280;39159;45.634;9.420;2023-03-20T00:09:07;99148.91;;;7.58;100.00
53270;BME280;39159;45.634;9.420;2023-03-20T00:11:42;99144.63;;;7.52;100.00
53270;BME280;39159;45.634;9.420;2023-03-20T00:14:13;99139.81;;;7.43;100.00
53270;BME280;39159;45.634;9.420;2023-03-20T00:16:44;99152.03;;;7.41;100.00
53270;BME280;39159;45.634;9.420;2023-03-20T00:19:19;99148.00;;;7.38;100.00
53270;BME280;39159;45.634;9.420;2023-03-20T00:21:48;99148.78;;;7.39;100.00
53270;BME280;39159;45.634;9.420;2023-03-20T00:24:14;99151.25;;;7.40;100.00
53270;BME280;39159;45.634;9.420;2023-03-20T00:26:42;99151.19;;;7.45;100.00
53270;BME280;39159;45.634;9.420;2023-03-20T00:29:28;99142.25;;;7.45;100.00
53270;BME280;39159;45.634;9.420;2023-03-20T00:31:55;99148.75;;;7.44;100.00
53270;BME280;39159;45.634;9.420;2023-03-20T00:34:24;99152.00;;;7.46;100.00
53270;BME280;39159;45.634;9.420;2023-03-20T00:36:51;99151.19;;;7.45;100.00
53270;BME280;39159;45.634;9.420;2023-03-20T00:39:18;99146.56;;;7.46;100.00
53270;BME280;39159;45.634;9.420;2023-03-20T00:41:57;99146.03;;;7.44;100.00
53270;BME280;39159;45.634;9.420;2023-03-20T00:44:29;99134.38;;;7.43;100.00
53270;BME280;39159;45.634;9.420;2023-03-20T00:47:19;99141.13;;;7.46;100.00
53270;BME280;39159;45.634;9.420;2023-03-20T00:49:46;99133.56;;;7.43;100.00
53270;BME280;39159;45.634;9.420;2023-03-20T00:52:12;99122.72;;;7.43;100.00
53270;BME280;39159;45.634;9.420;2023-03-20T00:54:39;99123.50;;;7.43;100.00
53270;BME280;39159;45.634;9.420;2023-03-20T01:02:26;99115.91;;;7.45;100.00
53270;BME280;39159;45.634;9.420;2023-03-20T01:04:53;99126.97;;;7.49;100.00
53270;BME280;39159;45.634;9.420;2023-03-20T01:07:19;99128.63;;;7.50;100.00
53270;BME280;39159;45.634;9.420;2023-03-20T01:09:45;99132.66;;;7.53;100.00
53270;BME280;39159;45.634;9.420;2023-03-20T01:12:12;99130.75;;;7.58;100.00
53270;BME280;39159;45.634;9.420;2023-03-20T01:14:39;99126.34;;;7.62;100.00
53270;BME280;39159;45.634;9.420;2023-03-20T01:17:09;99129.03;;;7.67;100.00
53270;BME280;39159;45.634;9.420;2023-03-20T01:19:41;99131.16;;;7.71;100.00
53270;BME280;39159;45.634;9.420;2023-03-20T01:22:06;99128.97;;;7.73;100.00
53270;BME280;39159;45.634;9.420;2023-03-20T01:24:32;99121.41;;;7.70;100.00
53270;BME280;39159;45.634;9.420;2023-03-20T01:26:58;99125.00;;;7.60;100.00
53270;BME280;39159;45.634;9.420;2023-03-20T01:29:27;99122.59;;;7.58;100.00
53270;BME280;39159;45.634;9.420;2023-03-20T01:31:53;99118.84;;;7.49;100.00
53270;BME280;39159;45.634;9.420;2023-03-20T01:34:19;99125.13;;;7.44;100.00
53270;BME280;39159;45.634;9.420;2023-03-20T01:36:56;99127.31;;;7.42;100.00
53270;BME280;39159;45.634;9.420;2023-03-20T01:39:31;99125.94;;;7.45;100.00
53270;BME280;39159;45.634;9.420;2023-03-20T01:41:58;99119.69;;;7.44;100.00
53270;BME280;39159;45.634;9.420;2023-03-20T01:44:28;99119.69;;;7.44;100.00
53270;BME280;39159;45.634;9.420;2023-03-20T01:46:54;99125.69;;;7.41;100.00
53270;BME280;39159;45.634;9.420;2023-03-20T01:51:46;99115.75;;;7.26;100.00
53270;BME280;39159;45.634;9.420;2023-03-20T01:54:48;99110.34;;;7.21;100.00
53270;BME280;39159;45.634;9.420;2023-03-20T01:57:16;99117.97;;;7.19;100.00
53270;BME280;39159;45.634;9.420;2023-03-20T02:02:13;99107.75;;;7.06;100.00
53270;BME280;39159;45.634;9.420;2023-03-20T02:04:43;99113.19;;;7.01;100.00
53270;BME280;39159;45.634;9.420;2023-03-20T02:07:12;99109.69;;;6.95;100.00
53270;BME280;39159;45.634;9.420;2023-03-20T02:09:40;99111.34;;;6.91;100.00
53270;BME280;39159;45.634;9.420;2023-03-20T02:12:06;99109.78;;;6.85;100.00
53270;BME280;39159;45.634;9.420;2023-03-20T02:14:32;99109.00;;;6.74;100.00
53270;BME280;39159;45.634;9.420;2023-03-20T02:16:58;99109.28;;;6.73;100.00
53270;BME280;39159;45.634;9.420;2023-03-20T02:19:25;99106.28;;;6.69;100.00
53270;BME280;39159;45.634;9.420;2023-03-20T02:27:56;99101.16;;;6.62;100.00
53270;BME280;39159;45.634;9.420;2023-03-20T02:33:18;99099.84;;;6.60;100.00
53270;BME280;39159;45.634;9.420;2023-03-20T02:42:12;99095.78;;;6.57;100.00
53270;BME280;39159;45.634;9.420;2023-03-20T02:45:02;99102.53;;;6.60;100.00
53270;BME280;39159;45.634;9.420;2023-03-20T02:47:55;99099.00;;;6.64;100.00
53270;BME280;39159;45.634;9.420;2023-03-20T02:53:33;99096.81;;;6.67;100.00
53270;BME280;39159;45.634;9.420;2023-03-20T02:56:31;99095.44;;;6.69;100.00
53270;BME280;39159;45.634;9.420;2023-03-20T02:59:10;99090.03;;;6.69;100.00
53270;BME280;39159;45.634;9.420;2023-03-20T03:01:42;99086.50;;;6.69;100.00
53270;BME280;39159;45.634;9.420;2023-03-20T03:04:25;99086.78;;;6.72;100.00
53270;BME280;39159;45.634;9.420;2023-03-20T03:06:53;99087.56;;;6.73;100.00
53270;BME280;39159;45.634;9.420;2023-03-20T03:09:30;99082.41;;;6.71;100.00
53270;BME280;39159;45.634;9.420;2023-03-20T03:12:05;99092.47;;;6.71;100.00
53270;BME280;39159;45.634;9.420;2023-03-20T03:14:36;99090.03;;;6.74;100.00
53270;BME280;39159;45.634;9.420;2023-03-20T03:17:04;99083.78;;;6.74;100.00
53270;BME280;39159;45.634;9.420;2023-03-20T03:19:33;99098.13;;;6.79;100.00
53270;BME280;39159;45.634;9.420;2023-03-20T03:21:59;99092.97;;;6.83;100.00
53270;BME280;39159;45.634;9.420;2023-03-20T03:24:34;99101.34;;;6.87;100.00
53270;BME280;39159;45.634;9.420;2023-03-20T03:27:03;99098.63;;;6.87;100.00
53270;BME280;39159;45.634;9.420;2023-03-20T03:29:33;99096.22;;;6.85;100.00
53270;BME280;39159;45.634;9.420;2023-03-20T03:32:02;99099.50;;;6.77;100.00
53270;BME280;39159;45.634;9.420;2023-03-20T03:34:30;99105.22;;;6.70;100.00
53270;BME280;39159;45.634;9.420;2023-03-20T03:37:17;99106.88;;;6.66;100.00
53270;BME280;39159;45.634;9.420;2023-03-20T03:40:02;99102.00;;;6.63;100.00
53270;BME280;39159;45.634;9.420;2023-03-20T03:42:32;99098.75;;;6.61;100.00
53270;BME280;39159;45.634;9.420;2023-03-20T03:45:13;99101.97;;;6.68;100.00
53270;BME280;39159;45.634;9.420;2023-03-20T03:47:45;99088.94;;;6.70;100.00
53270;BME280;39159;45.634;9.420;2023-03-20T03:50:16;99090.81;;;6.75;100.00
53270;BME280;39159;45.634;9.420;2023-03-20T03:52:45;99094.06;;;6.77;100.00
53270;BME280;39159;45.634;9.420;2023-03-20T03:55:21;99101.41;;;6.76;100.00
53270;BME280;39159;45.634;9.420;2023-03-20T03:58:00;99108.44;;;6.77;100.00
53270;BME280;39159;45.634;9.420;2023-03-20T04:00:29;99104.91;;;6.77;100.00
53270;BME280;39159;45.634;9.420;2023-03-20T04:02:57;99112.53;;;6.75;100.00
53270;BME280;39159;45.634;9.420;2023-03-20T04:05:25;99101.44;;;6.66;100.00
53270;BME280;39159;45.634;9.420;2023-03-20T04:07:55;99106.31;;;6.64;100.00
53270;BME280;39159;45.634;9.420;2023-03-20T04:10:22;99103.88;;;6.62;100.00
53270;BME280;39159;45.634;9.420;2023-03-20T04:12:47;99105.53;;;6.63;100.00
53270;BME280;39159;45.634;9.420;2023-03-20T04:15:14;99108.50;;;6.67;100.00
53270;BME280;39159;45.634;9.420;2023-03-20T04:17:41;99113.34;;;6.70;100.00
53270;BME280;39159;45.634;9.420;2023-03-20T04:20:08;99107.66;;;6.72;100.00
53270;BME280;39159;45.634;9.420;2023-03-20T04:22:34;99107.63;;;6.77;100.00
53270;BME280;39159;45.634;9.420;2023-03-20T04:25:00;99109.25;;;6.78;100.00
53270;BME280;39159;45.634;9.420;2023-03-20T04:27:27;99103.28;;;6.81;100.00
53270;BME280;39159;45.634;9.420;2023-03-20T04:29:53;99106.78;;;6.81;100.00
53270;BME280;39159;45.634;9.420;2023-03-20T04:32:19;99118.72;;;6.85;100.00
53270;BME280;39159;45.634;9.420;2023-03-20T04:34:44;99119.50;;;6.86;100.00
53270;BME280;39159;45.634;9.420;2023-03-20T04:37:10;99118.69;;;6.91;100.00
53270;BME280;39159;45.634;9.420;2023-03-20T04:39:36;99119.22;;;6.93;100.00
53270;BME280;39159;45.634;9.420;2023-03-20T04:42:02;99115.66;;;6.97;100.00
53270;BME280;39159;45.634;9.420;2023-03-20T04:44:28;99116.47;;;6.98;100.00
53270;BME280;39159;45.634;9.420;2023-03-20T04:46:54;99121.34;;;7.01;100.00
53270;BME280;39159;45.634;9.420;2023-03-20T04:49:19;99116.16;;;7.04;100.00
53270;BME280;39159;45.634;9.420;2023-03-20T04:51:45;99124.28;;;7.10;100.00
53270;BME280;39159;45.634;9.420;2023-03-20T04:54:10;99113.13;;;7.16;100.00
53270;BME280;39159;45.634;9.420;2023-03-20T04:56:36;99120.09;;;7.22;100.00
53270;BME280;39159;45.634;9.420;2023-03-20T04:59:01;99118.47;;;7.26;100.00
53270;BME280;39159;45.634;9.420;2023-03-20T05:01:27;99116.53;;;7.32;100.00
53270;BME280;39159;45.634;9.420;2023-03-20T05:03:52;99124.91;;;7.36;100.00
53270;BME280;39159;45.634;9.420;2023-03-20T05:06:25;99116.75;;;7.41;100.00
53270;BME280;39159;45.634;9.420;2023-03-20T05:08:51;99119.69;;;7.44;100.00
53270;BME280;39159;45.634;9.420;2023-03-20T05:11:16;99111.00;;;7.42;100.00
53270;BME280;39159;45.634;9.420;2023-03-20T05:13:41;99113.94;;;7.51;100.00
53270;BME280;39159;45.634;9.420;2023-03-20T05:16:07;99114.34;;;7.68;100.00
53270;BME280;39159;45.634;9.420;2023-03-20T05:18:33;99114.00;;;7.75;100.00
53270;BME280;39159;45.634;9.420;2023-03-20T05:20:59;99122.94;;;7.81;100.00
53270;BME280;39159;45.634;9.420;2023-03-20T05:23:25;99110.09;;;7.86;100.00
53270;BME280;39159;45.634;9.420;2023-03-20T05:25:51;99120.09;;;7.96;100.00
53270;BME280;39159;45.634;9.420;2023-03-20T05:28:16;99119.25;;;7.96;100.00
53270;BME280;39159;45.634;9.420;2023-03-20T05:30:42;99122.84;;;7.91;100.00
53270;BME280;39159;45.634;9.420;2023-03-20T05:33:07;99128.25;;;7.91;100.00
53270;BME280;39159;45.634;9.420;2023-03-20T05:35:33;99133.16;;;7.94;100.00
53270;BME280;39159;45.634;9.420;2023-03-20T05:37:58;99127.78;;;7.84;100.00
53270;BME280;39159;45.634;9.420;2023-03-20T05:40:25;99135.19;;;7.78;100.00
53270;BME280;39159;45.634;9.420;2023-03-20T05:42:50;99135.47;;;7.77;100.00
53270;BME280;39159;45.634;9.420;2023-03-20T05:45:17;99143.38;;;7.73;100.00
53270;BME280;39159;45.634;9.420;2023-03-20T05:47:43;99148.91;;;7.63;100.00
53270;BME280;39159;45.634;9.420;2023-03-20T05:50:09;99146.53;;;7.51;100.00
53270;BME280;39159;45.634;9.420;2023-03-20T05:52:35;99148.97;;;7.53;100.00
53270;BME280;39159;45.634;9.420;2023-03-20T05:55:00;99151.41;;;7.54;100.00
53270;BME280;39159;45.634;9.420;2023-03-20T05:57:26;99147.50;;;7.65;100.00
53270;BME280;39159;45.634;9.420;2023-03-20T05:59:51;99142.31;;;7.69;100.00
53270;BME280;39159;45.634;9.420;2023-03-20T06:02:17;99139.91;;;7.67;100.00
53270;BME280;39159;45.634;9.420;2023-03-20T06:04:42;99139.91;;;7.62;100.00
53270;BME280;39159;45.634;9.420;2023-03-20T06:07:07;99137.78;;;7.59;100.00
53270;BME280;39159;45.634;9.420;2023-03-20T06:09:33;99131.53;;;7.59;100.00
53270;BME280;39159;45.634;9.420;2023-03-20T06:11:58;99147.84;;;7.59;100.00
53270;BME280;39159;45.634;9.420;2023-03-20T06:14:24;99150.59;;;7.54;100.00
53270;BME280;39159;45.634;9.420;2023-03-20T06:16:50;99148.75;;;7.44;100.00
53270;BME280;39159;45.634;9.420;2023-03-20T06:19:16;99140.06;;;7.47;100.00
53270;BME280;39159;45.634;9.420;2023-03-20T06:21:41;99144.09;;;7.50;100.00
53270;BME280;39159;45.634;9.420;2023-03-20T06:24:07;99142.94;;;7.56;100.00
53270;BME280;39159;45.634;9.420;2023-03-20T06:26:32;99151.63;;;7.63;100.00
53270;BME280;39159;45.634;9.420;2023-03-20T06:28:58;99159.19;;;7.66;100.00
53270;BME280;39159;45.634;9.420;2023-03-20T06:31:23;99155.38;;;7.67;100.00
53270;BME280;39159;45.634;9.420;2023-03-20T06:33:49;99160.50;;;7.74;100.00
53270;BME280;39159;45.634;9.420;2023-03-20T06:36:15;99150.91;;;7.81;100.00
53270;BME280;39159;45.634;9.420;2023-03-20T06:38:40;99157.41;;;7.85;100.00
53270;BME280;39159;45.634;9.420;2023-03-20T06:41:06;99163.91;;;7.89;100.00
53270;BME280;39159;45.634;9.420;2023-03-20T06:43:31;99162.97;;;7.99;100.00
53270;BME280;39159;45.634;9.420;2023-03-20T06:45:57;99167.84;;;8.02;100.00
53270;BME280;39159;45.634;9.420;2023-03-20T06:48:22;99162.94;;;8.04;100.00
53270;BME280;39159;45.634;9.420;2023-03-20T06:50:51;99170.75;;;8.11;100.00
53270;BME280;39159;45.634;9.420;2023-03-20T06:53:17;99169.53;;;8.27;100.00
53270;BME280;39159;45.634;9.420;2023-03-20T06:55:46;99173.13;;;8.47;100.00
53270;BME280;39159;45.634;9.420;2023-03-20T06:58:11;99174.19;;;8.51;100.00
53270;BME280;39159;45.634;9.420;2023-03-20T07:00:37;99170.66;;;8.50;100.00
53270;BME280;39159;45.634;9.420;2023-03-20T07:03:03;99164.69;;;8.48;100.00
53270;BME280;39159;45.634;9.420;2023-03-20T07:05:28;99174.78;;;8.48;100.00
53270;BME280;39159;45.634;9.420;2023-03-20T07:07:54;99170.59;;;8.56;100.00
53270;BME280;39159;45.634;9.420;2023-03-20T07:10:19;99178.13;;;8.64;100.00
53270;BME280;39159;45.634;9.420;2023-03-20T07:12:45;99181.84;;;8.73;100.00
53270;BME280;39159;45.634;9.420;2023-03-20T07:15:10;99178.91;;;8.69;100.00
53270;BME280;39159;45.634;9.420;2023-03-20T07:17:36;99182.34;;;8.75;100.00
53270;BME280;39159;45.634;9.420;2023-03-20T07:20:03;99182.25;;;8.85;100.00
53270;BME280;39159;45.634;9.420;2023-03-20T07:22:29;99180.78;;;8.93;100.00
53270;BME280;39159;45.634;9.420;2023-03-20T07:24:56;99174.94;;;9.05;100.00
53270;BME280;39159;45.634;9.420;2023-03-20T07:27:22;99179.72;;;9.13;100.00
53270;BME280;39159;45.634;9.420;2023-03-20T07:29:48;99180.75;;;9.17;100.00
53270;BME280;39159;45.634;9.420;2023-03-20T07:32:13;99174.84;;;9.29;100.00
53270;BME280;39159;45.634;9.420;2023-03-20T07:34:39;99175.63;;;9.34;100.00
53270;BME280;39159;45.634;9.420;2023-03-20T07:37:05;99182.81;;;9.63;100.00
53270;BME280;39159;45.634;9.420;2023-03-20T07:39:31;99176.97;;;9.89;100.00
53270;BME280;39159;45.634;9.420;2023-03-20T07:41:56;99185.22;;;10.16;100.00
53270;BME280;39159;45.634;9.420;2023-03-20T07:44:22;99176.09;;;10.40;100.00
53270;BME280;39159;45.634;9.420;2023-03-20T07:46:47;99184.50;;;10.57;100.00
53270;BME280;39159;45.634;9.420;2023-03-20T07:49:13;99183.19;;;10.83;100.00
53270;BME280;39159;45.634;9.420;2023-03-20T07:51:43;99184.78;;;11.25;100.00
53270;BME280;39159;45.634;9.420;2023-03-20T07:54:08;99179.00;;;11.40;100.00
53270;BME280;39159;45.634;9.420;2023-03-20T07:56:33;99187.66;;;11.43;100.00
53270;BME280;39159;45.634;9.420;2023-03-20T07:58:59;99192.53;;;11.46;100.00
53270;BME280;39159;45.634;9.420;2023-03-20T08:01:24;99193.69;;;11.67;100.00
53270;BME280;39159;45.634;9.420;2023-03-20T08:03:50;99193.41;;;11.91;100.00
53270;BME280;39159;45.634;9.420;2023-03-20T08:06:15;99193.09;;;12.15;100.00
53270;BME280;39159;45.634;9.420;2023-03-20T08:08:41;99189.97;;;12.31;100.00
53270;BME280;39159;45.634;9.420;2023-03-20T08:11:06;99193.88;;;12.38;99.43
53270;BME280;39159;45.634;9.420;2023-03-20T08:13:32;99192.44;;;12.41;100.00
53270;BME280;39159;45.634;9.420;2023-03-20T08:15:57;99196.03;;;12.50;100.00
53270;BME280;39159;45.634;9.420;2023-03-20T08:18:23;99194.63;;;12.61;99.71
53270;BME280;39159;45.634;9.420;2023-03-20T08:20:48;99199.31;;;12.61;97.19
53270;BME280;39159;45.634;9.420;2023-03-20T08:23:15;99199.75;;;12.54;96.80
53270;BME280;39159;45.634;9.420;2023-03-20T08:25:41;99202.66;;;12.58;95.21
53270;BME280;39159;45.634;9.420;2023-03-20T08:28:11;99210.22;;;12.52;98.18
53270;BME280;39159;45.634;9.420;2023-03-20T08:30:36;99216.19;;;12.54;97.94
53270;BME280;39159;45.634;9.420;2023-03-20T08:33:02;99214.38;;;12.50;97.69
53270;BME280;39159;45.634;9.420;2023-03-20T08:35:27;99220.88;;;12.31;98.70
53270;BME280;39159;45.634;9.420;2023-03-20T08:37:53;99216.66;;;12.25;99.96
53270;BME280;39159;45.634;9.420;2023-03-20T08:40:19;99225.50;;;12.53;100.00
53270;BME280;39159;45.634;9.420;2023-03-20T08:42:44;99230.31;;;12.79;98.05
53270;BME280;39159;45.634;9.420;2023-03-20T08:45:11;99226.50;;;12.97;95.42
53270;BME280;39159;45.634;9.420;2023-03-20T08:47:36;99225.41;;;13.16;93.46
53270;BME280;39159;45.634;9.420;2023-03-20T08:50:02;99228.97;;;13.07;93.32
53270;BME280;39159;45.634;9.420;2023-03-20T08:52:28;99232.84;;;13.15;93.90
53270;BME280;39159;45.634;9.420;2023-03-20T08:54:54;99233.28;;;13.48;93.80
53270;BME280;39159;45.634;9.420;2023-03-20T08:57:19;99243.13;;;13.67;90.45
53270;BME280;39159;45.634;9.420;2023-03-20T08:59:45;99231.84;;;13.60;89.94
53270;BME280;39159;45.634;9.420;2023-03-20T09:02:10;99243.63;;;13.69;89.51
53270;BME280;39159;45.634;9.420;2023-03-20T09:04:36;99243.16;;;13.93;87.86
53270;BME280;39159;45.634;9.420;2023-03-20T09:07:02;99246.69;;;14.02;87.89
53270;BME280;39159;45.634;9.420;2023-03-20T09:09:28;99244.13;;;14.06;87.98
53270;BME280;39159;45.634;9.420;2023-03-20T09:11:57;99245.38;;;14.35;87.51
53270;BME280;39159;45.634;9.420;2023-03-20T09:14:24;99251.06;;;14.12;86.25
53270;BME280;39159;45.634;9.420;2023-03-20T09:16:50;99237.63;;;14.37;85.78
53270;BME280;39159;45.634;9.420;2023-03-20T09:19:17;99237.44;;;14.59;84.57
53270;BME280;39159;45.634;9.420;2023-03-20T09:21:43;99236.31;;;14.43;81.98
53270;BME280;39159;45.634;9.420;2023-03-20T09:24:08;99237.44;;;14.50;81.90
53270;BME280;39159;45.634;9.420;2023-03-20T09:26:34;99238.06;;;14.56;81.85
53270;BME280;39159;45.634;9.420;2023-03-20T09:28:59;99242.13;;;14.50;80.36
53270;BME280;39159;45.634;9.420;2023-03-20T09:31:25;99237.91;;;14.61;78.67
53270;BME280;39159;45.634;9.420;2023-03-20T09:33:50;99234.03;;;14.45;79.06
53270;BME280;39159;45.634;9.420;2023-03-20T09:36:16;99239.56;;;14.36;79.50
53270;BME280;39159;45.634;9.420;2023-03-20T09:38:41;99222.13;;;14.41;79.47
53270;BME280;39159;45.634;9.420;2023-03-20T09:41:19;99229.31;;;14.63;77.84
53270;BME280;39159;45.634;9.420;2023-03-20T09:46:32;99218.00;;;15.03;75.11
53270;BME280;39159;45.634;9.420;2023-03-20T09:56:49;99204.69;;;15.13;75.37
53270;BME280;39159;45.634;9.420;2023-03-20T09:59:16;99207.41;;;15.22;75.94
53270;BME280;39159;45.634;9.420;2023-03-20T10:01:56;99204.59;;;15.10;74.58
53270;BME280;39159;45.634;9.420;2023-03-20T10:04:25;99202.19;;;14.52;76.65
53270;BME280;39159;45.634;9.420;2023-03-20T10:06:52;99206.50;;;14.15;80.63
53270;BME280;39159;45.634;9.420;2023-03-20T10:09:36;99196.00;;;13.82;83.28
53270;BME280;39159;45.634;9.420;2023-03-20T10:18:15;99187.41;;;14.83;77.66
53270;BME280;39159;45.634;9.420;2023-03-20T10:20:24;99185.63;;;15.17;74.00
53270;BME280;39159;45.634;9.420;2023-03-20T10:23:11;99186.31;;;15.35;73.39
53270;BME280;39159;45.634;9.420;2023-03-20T10:25:42;99189.31;;;15.42;74.07
53270;BME280;39159;45.634;9.420;2023-03-20T10:28:20;99189.16;;;15.47;74.21
53270;BME280;39159;45.634;9.420;2023-03-20T10:39:12;99195.47;;;16.23;68.43
53270;BME280;39159;45.634;9.420;2023-03-20T10:41:52;99187.09;;;16.20;68.08
53270;BME280;39159;45.634;9.420;2023-03-20T10:44:41;99195.13;;;16.25;67.71
53270;BME280;39159;45.634;9.420;2023-03-20T10:47:13;99183.63;;;16.23;68.15
53270;BME280;39159;45.634;9.420;2023-03-20T10:49:45;99186.06;;;15.70;70.14
53270;BME280;39159;45.634;9.420;2023-03-20T10:52:15;99185.03;;;15.95;69.09
53270;BME280;39159;45.634;9.420;2023-03-20T10:54:47;99190.53;;;16.16;67.45
53270;BME280;39159;45.634;9.420;2023-03-20T10:57:21;99187.28;;;15.81;67.86
53270;BME280;39159;45.634;9.420;2023-03-20T10:59:50;99190.31;;;16.01;67.49
53270;BME280;39159;45.634;9.420;2023-03-20T11:02:18;99179.38;;;16.13;68.21
53270;BME280;39159;45.634;9.420;2023-03-20T11:04:44;99185.50;;;15.98;70.16
53270;BME280;39159;45.634;9.420;2023-03-20T11:10:06;99178.09;;;15.77;68.39
53270;BME280;39159;45.634;9.420;2023-03-20T11:12:44;99171.09;;;15.80;69.91
53270;BME280;39159;45.634;9.420;2023-03-20T11:15:26;99174.25;;;15.90;67.08
53270;BME280;39159;45.634;9.420;2023-03-20T11:17:57;99177.31;;;16.10;67.35
53270;BME280;39159;45.634;9.420;2023-03-20T11:20:24;99169.28;;;16.17;65.85
53270;BME280;39159;45.634;9.420;2023-03-20T11:22:57;99168.91;;;16.06;67.65
53270;BME280;39159;45.634;9.420;2023-03-20T11:25:29;99166.16;;;16.06;66.35
53270;BME280;39159;45.634;9.420;2023-03-20T11:28:17;99166.31;;;16.10;65.69
53270;BME280;39159;45.634;9.420;2023-03-20T11:30:43;99160.34;;;16.20;64.92
53270;BME280;39159;45.634;9.420;2023-03-20T11:33:09;99160.75;;;16.43;63.26
53270;BME280;39159;45.634;9.420;2023-03-20T11:35:34;99163.28;;;16.48;63.00
53270;BME280;39159;45.634;9.420;2023-03-20T11:40:38;99165.28;;;17.22;61.84
53270;BME280;39159;45.634;9.420;2023-03-20T11:43:11;99159.03;;;17.25;60.76
53270;BME280;39159;45.634;9.420;2023-03-20T11:48:05;99151.31;;;17.43;61.31
53270;BME280;39159;45.634;9.420;2023-03-20T11:50:37;99155.03;;;17.34;63.12
53270;BME280;39159;45.634;9.420;2023-03-20T11:53:28;99152.19;;;16.94;63.89
53270;BME280;39159;45.634;9.420;2023-03-20T11:56:43;99143.56;;;16.95;64.72
53270;BME280;39159;45.634;9.420;2023-03-20T12:01:15;99139.81;;;16.17;63.70
53270;BME280;39159;45.634;9.420;2023-03-20T12:06:27;99141.06;;;16.08;67.83
53270;BME280;39159;45.634;9.420;2023-03-20T12:09:04;99133.84;;;16.15;66.51
53270;BME280;39159;45.634;9.420;2023-03-20T12:11:51;99136.81;;;16.10;67.35
53270;BME280;39159;45.634;9.420;2023-03-20T12:15:13;99124.25;;;16.01;66.47
53270;BME280;39159;45.634;9.420;2023-03-20T12:20:18;99129.00;;;15.58;68.29
53270;BME280;39159;45.634;9.420;2023-03-20T12:22:59;99133.44;;;15.71;69.24
53270;BME280;39159;45.634;9.420;2023-03-20T12:25:30;99123.63;;;15.83;69.47
53270;BME280;39159;45.634;9.420;2023-03-20T12:28:09;99122.50;;;16.17;67.88
53270;BME280;39159;45.634;9.420;2023-03-20T12:31:05;99114.22;;;16.17;68.08
53270;BME280;39159;45.634;9.420;2023-03-20T12:33:51;99100.47;;;16.17;68.65
53270;BME280;39159;45.634;9.420;2023-03-20T12:36:31;99101.72;;;16.20;67.84
53270;BME280;39159;45.634;9.420;2023-03-20T12:38:57;99103.63;;;15.94;68.65
53270;BME280;39159;45.634;9.420;2023-03-20T12:41:33;99102.16;;;15.76;69.55
53270;BME280;39159;45.634;9.420;2023-03-20T12:45:05;99097.69;;;15.50;70.98
53270;BME280;39159;45.634;9.420;2023-03-20T12:47:30;99092.66;;;15.52;70.03
53270;BME280;39159;45.634;9.420;2023-03-20T12:56:01;99097.63;;;14.96;73.73
53270;BME280;39159;45.634;9.420;2023-03-20T12:58:43;99083.34;;;15.03;75.22
53270;BME280;39159;45.634;9.420;2023-03-20T13:01:38;99079.81;;;15.23;73.15
53270;BME280;39159;45.634;9.420;2023-03-20T13:07:01;99074.06;;;15.49;70.74
53270;BME280;39159;45.634;9.420;2023-03-20T13:12:34;99072.84;;;15.80;69.41
53270;BME280;39159;45.634;9.420;2023-03-20T13:20:28;99071.19;;;16.12;65.91
53270;BME280;39159;45.634;9.420;2023-03-20T13:23:07;99083.25;;;16.08;65.08
53270;BME280;39159;45.634;9.420;2023-03-20T13:33:59;99066.50;;;16.13;64.70
53270;BME280;39159;45.634;9.420;2023-03-20T13:39:38;99068.47;;;16.37;63.74
53270;BME280;39159;45.634;9.420;2023-03-20T13:42:11;99071.56;;;16.60;62.20
53270;BME280;39159;45.634;9.420;2023-03-20T13:44:40;99064.69;;;16.78;61.71
53270;BME280;39159;45.634;9.420;2023-03-20T13:47:13;99068.00;;;16.60;61.57
53270;BME280;39159;45.634;9.420;2023-03-20T13:49:55;99060.44;;;16.32;61.61
53270;BME280;39159;45.634;9.420;2023-03-20T13:52:27;99053.31;;;16.31;62.21
53270;BME280;39159;45.634;9.420;2023-03-20T14:03:12;99065.81;;;16.53;60.39
53270;BME280;39159;45.634;9.420;2023-03-20T14:05:42;99061.69;;;16.47;60.74
53270;BME280;39159;45.634;9.420;2023-03-20T14:10:45;99063.66;;;16.58;60.86
53270;BME280;39159;45.634;9.420;2023-03-20T14:13:16;99061.47;;;16.76;59.54
53270;BME280;39159;45.634;9.420;2023-03-20T14:15:51;99055.03;;;16.85;58.83
53270;BME280;39159;45.634;9.420;2023-03-20T14:18:21;99057.19;;;16.79;59.25
53270;BME280;39159;45.634;9.420;2023-03-20T14:20:58;99057.09;;;16.63;60.13
53270;BME280;39159;45.634;9.420;2023-03-20T14:24:32;99054.00;;;16.40;59.96
53270;BME280;39159;45.634;9.420;2023-03-20T14:26:28;99040.56;;;16.26;59.78
53270;BME280;39159;45.634;9.420;2023-03-20T14:28:58;99041.16;;;16.20;61.74
53270;BME280;39159;45.634;9.420;2023-03-20T14:31:32;99045.38;;;16.05;61.65
53270;BME280;39159;45.634;9.420;2023-03-20T14:36:58;99038.94;;;16.01;62.53
53270;BME280;39159;45.634;9.420;2023-03-20T14:42:46;99039.88;;;16.17;62.02
53270;BME280;39159;45.634;9.420;2023-03-20T14:47:50;99040.50;;;15.77;63.12
53270;BME280;39159;45.634;9.420;2023-03-20T14:55:27;99052.63;;;15.76;62.85
53270;BME280;39159;45.634;9.420;2023-03-20T14:57:55;99045.06;;;15.73;62.41
53270;BME280;39159;45.634;9.420;2023-03-20T15:00:26;99045.34;;;15.59;62.93
53270;BME280;39159;45.634;9.420;2023-03-20T15:03:10;99044.75;;;15.74;62.89
53270;BME280;39159;45.634;9.420;2023-03-20T15:05:38;99045.91;;;15.86;62.84
53270;BME280;39159;45.634;9.420;2023-03-20T15:08:07;99043.50;;;15.84;62.14
53270;BME280;39159;45.634;9.420;2023-03-20T15:10:34;99040.44;;;15.65;62.19
53270;BME280;39159;45.634;9.420;2023-03-20T15:13:04;99041.34;;;15.57;63.20
53270;BME280;39159;45.634;9.420;2023-03-20T15:15:30;99044.50;;;15.46;62.03
53270;BME280;39159;45.634;9.420;2023-03-20T15:18:03;99052.97;;;15.41;63.55